FYGA4: White River At Fayetteville, AR

                                SHEF ID:       FYGA4     White River near Fayetteville, A
STATION TYPE: Stream Gauge

PRECIP STAGE RIV-FLOW WTR-TEMP DIS-OXY PH CONDUCT BAT-LOAD
in ft cfs F mg/l su umho/cm volt
Ccp-Rev Ccp-Rev Ccp-Rev Ccp-Rev Ccp-Rev Ccp-Rev Ccp-Rev Ccp-Rev
(America/Chicago)
11/28 00:00 0.00 2.62 170 52.59 9.59 7.51 153 12.57
11/28 01:00 0.00 2.61 167 52.36 9.63 7.52 153 12.57
11/28 02:00 0.00 2.60 164 52.18 9.65 7.51 152 12.57
11/28 03:00 0.00 2.60 164 52.05 9.66 7.51 153 12.49
11/28 04:00 0.00 2.59 162 51.91 9.64 7.51 153 12.49
11/28 05:00 0.00 2.59 162 51.69 9.68 7.51 153 12.41
11/28 06:00 0.00 2.58 159 51.53 9.70 7.52 153 12.41
11/28 07:00 0.00 2.58 159 51.35 9.71 7.50 153 12.41
11/28 08:00 0.00 2.58 159 51.17 9.77 7.50 154 12.41
11/28 09:00 0.00 2.57 156 51.26 9.95 7.52 154 13.13
11/28 10:00 0.00 2.56 154 51.64 10.18 7.56 153 13.68
11/28 11:00 0.00 2.55 151 52.41 10.31 7.59 154 14.64
11/28 12:00 0.00 2.55 151 53.08 10.39 7.61 155 14.08
11/28 13:00 0.00 2.55 151 53.76 10.40 7.64 154 14.08
11/28 14:00 0.00 2.56 154 53.98 10.40 7.66 153 14.00
11/28 15:00 0.00 2.56 154 53.74 10.32 7.66 152 13.84
11/28 16:00 0.00 2.55 151 53.37 10.16 7.64 151 13.05
11/28 17:00 0.00 2.55 151 53.11 9.94 7.61 152 12.97
11/28 18:00 0.00 2.55 151 52.92 9.78 7.57 152 12.81
11/28 19:00 0.00 2.54 149 52.83 9.65 7.56 153 12.73
11/28 20:00 0.00 2.55 151 52.75 9.63 7.55 152 12.73
11/28 21:00 0.00 2.57 156 52.57 9.63 7.55 152 12.65
11/28 22:00 0.00 2.55 151 52.43 9.61 7.53 150 12.65
11/28 23:00 0.00 2.50 139 52.21 9.57 7.53 151 12.65
Data processed at Sat 29Nov2025 05:10 GMT

NOTICE: If you are parsing this page

Please convert to using our Data API. Starting January 1st, 2026 we will be migrating to: https://water.usace.army.mil with modern pages rendered in JavaScript. You will no longer be able to scrape this page! CWMSDataAPI (CDA)

Timeseries IDs (TSIDs)

TSIDs used from left to right in the data table
FAYE.Precip-Inc.Total.1Hour.1Hour.Ccp-Rev
FAYE.Stage.Inst.1Hour.0.Ccp-Rev
FAYE.Flow.Inst.1Hour.0.Ccp-Rev
FAYE.Temp-Water.Inst.1Hour.0.Ccp-Rev
FAYE.Conc-DO.Inst.1Hour.0.Ccp-Rev
FAYE.pH.Inst.1Hour.0.Ccp-Rev
FAYE.Cond-Water.Inst.1Hour.0.Ccp-Rev
FAYE.Volt-Battery Load.Inst.1Hour.0.Ccp-Rev

                            

All information presented herein is the property of the government of the United States of America and may be revised or deleted at any time without prior notice. Dissemination of this information without the expressed written consent of the Public Affairs Office, Tulsa District U.S. Army Corps of Engineers is strictly prohibited. These data are gathered electronically and, as presented, have NOT undergone any form of quality control. These data are NOT guaranteed to be valid or correct.